Time;durP1;ratioP1;P1;durP2;ratioP2;P2;SDS_P1;SDS_P2;PMS_P1;PMS_P2;Temp;Humidity;BMP_temperature;BMP_pressure;BME280_temperature;BME280_humidity;BME280_pressure;Samples;Min_cycle;Max_cycle;Signal;HPM_P1;HPM_P2
2020/12/31 00:01:01;;;;;;;7.80;6.70;;;4.30;99.90;;;;;;5071316;28;20196;-73
2020/12/31 00:03:27;;;;;;;7.57;6.60;;;4.30;99.90;;;;;;5070593;28;20191;-73
2020/12/31 00:05:52;;;;;;;9.40;6.80;;;4.30;99.90;;;;;;5053219;28;20625;-73
2020/12/31 00:08:18;;;;;;;8.17;7.40;;;4.30;99.90;;;;;;5061272;28;20187;-73
2020/12/31 00:10:43;;;;;;;11.03;6.47;;;4.30;99.90;;;;;;5072211;28;20250;-73
2020/12/31 00:13:09;;;;;;;8.20;7.00;;;4.30;99.90;;;;;;5070040;28;20188;-73
2020/12/31 00:15:34;;;;;;;8.00;6.90;;;4.30;99.90;;;;;;5052450;28;20193;-73
2020/12/31 00:18:00;;;;;;;10.83;7.27;;;4.30;99.90;;;;;;5075674;28;20186;-73
2020/12/31 00:20:25;;;;;;;8.23;6.80;;;4.30;99.90;;;;;;5052892;28;20214;-73
2020/12/31 00:22:51;;;;;;;7.50;6.57;;;4.30;99.90;;;;;;5070677;28;20187;-73
2020/12/31 00:25:17;;;;;;;8.90;7.60;;;4.20;99.90;;;;;;5071016;28;20243;-73
2020/12/31 00:27:43;;;;;;;7.33;6.63;;;4.30;99.90;;;;;;5075614;28;20194;-73
2020/12/31 00:30:10;;;;;;;10.43;7.77;;;4.20;99.90;;;;;;5071390;28;21198;-73
2020/12/31 00:32:36;;;;;;;7.77;6.97;;;4.20;99.90;;;;;;5070141;28;20559;-73
2020/12/31 00:35:04;;;;;;;8.57;7.40;;;4.10;99.90;;;;;;5072139;28;20437;-73
2020/12/31 00:37:33;;;;;;;7.90;6.87;;;4.10;99.90;;;;;;5071002;28;20187;-73
2020/12/31 00:39:59;;;;;;;8.00;6.90;;;4.10;99.90;;;;;;5071998;28;20803;-73
2020/12/31 00:42:25;;;;;;;8.93;8.00;;;4.10;99.90;;;;;;5070661;28;20445;-73
2020/12/31 00:44:50;;;;;;;8.20;7.30;;;4.10;99.90;;;;;;5069278;28;20200;-73
2020/12/31 00:47:16;;;;;;;8.70;7.73;;;4.00;99.90;;;;;;5073282;28;20199;-73
2020/12/31 00:49:41;;;;;;;9.00;7.80;;;4.00;99.90;;;;;;5052941;28;20204;-73
2020/12/31 00:52:07;;;;;;;9.80;8.03;;;4.00;99.90;;;;;;5053273;28;20705;-73
2020/12/31 00:54:32;;;;;;;7.93;7.13;;;4.00;99.90;;;;;;5070628;28;20199;-73
2020/12/31 00:56:58;;;;;;;7.83;7.03;;;3.90;99.90;;;;;;5070400;28;20223;-73
2020/12/31 00:59:23;;;;;;;7.77;6.97;;;3.80;99.90;;;;;;5070335;28;20537;-73
2020/12/31 01:01:49;;;;;;;8.90;8.00;;;3.80;99.90;;;;;;5055566;28;20516;-73
2020/12/31 01:04:14;;;;;;;12.50;9.43;;;3.70;99.90;;;;;;5069526;28;20206;-73
2020/12/31 01:06:40;;;;;;;9.83;8.83;;;3.70;99.90;;;;;;5071124;28;20527;-73
2020/12/31 01:09:08;;;;;;;9.17;8.23;;;3.70;99.90;;;;;;5070216;28;20187;-73
2020/12/31 01:11:36;;;;;;;10.07;9.00;;;3.60;99.90;;;;;;5070100;28;20175;-73
2020/12/31 01:14:02;;;;;;;10.63;9.53;;;3.60;99.90;;;;;;5069034;28;20470;-73
2020/12/31 01:16:28;;;;;;;10.17;9.17;;;3.60;99.90;;;;;;5070116;28;20469;-73
2020/12/31 01:18:53;;;;;;;11.87;10.17;;;3.70;99.90;;;;;;5077122;28;20856;-73
2020/12/31 01:21:19;;;;;;;11.87;10.67;;;3.60;99.90;;;;;;5069809;28;20200;-73
2020/12/31 01:23:44;;;;;;;12.97;9.73;;;3.60;99.90;;;;;;5069087;28;20211;-73
2020/12/31 01:26:12;;;;;;;12.20;9.90;;;3.70;99.90;;;;;;5074180;28;21003;-73
2020/12/31 01:28:37;;;;;;;11.83;10.00;;;3.70;99.90;;;;;;5068790;28;20236;-73
2020/12/31 01:31:09;;;;;;;12.00;10.07;;;3.70;99.90;;;;;;5073017;28;20441;-73
2020/12/31 01:33:39;;;;;;;12.17;10.23;;;3.60;99.90;;;;;;5068395;28;20202;-73
2020/12/31 01:36:08;;;;;;;12.83;11.43;;;3.60;99.90;;;;;;5052853;28;20440;-73
2020/12/31 01:38:34;;;;;;;11.10;9.80;;;3.60;99.90;;;;;;5075166;28;20431;-75
2020/12/31 01:41:00;;;;;;;12.43;9.73;;;3.60;99.90;;;;;;5070746;28;20457;-73
2020/12/31 01:43:26;;;;;;;12.60;10.20;;;3.60;99.90;;;;;;5072185;28;20620;-73
2020/12/31 01:45:51;;;;;;;11.80;10.33;;;3.60;99.90;;;;;;5069202;28;20203;-73
2020/12/31 01:48:17;;;;;;;13.70;10.00;;;3.50;99.90;;;;;;5076966;28;20490;-73
2020/12/31 01:50:43;;;;;;;13.27;11.20;;;3.50;99.90;;;;;;5068395;28;20198;-73
2020/12/31 01:53:09;;;;;;;11.73;10.53;;;3.50;99.90;;;;;;5069700;28;20444;-73
2020/12/31 01:55:35;;;;;;;11.90;10.70;;;3.50;99.90;;;;;;5069513;28;20188;-73
2020/12/31 01:58:00;;;;;;;12.37;10.60;;;3.50;99.90;;;;;;5051279;28;20512;-73
2020/12/31 02:00:26;;;;;;;12.63;10.83;;;3.50;99.90;;;;;;5072366;28;20540;-73
2020/12/31 02:02:51;;;;;;;11.93;10.37;;;3.60;99.90;;;;;;5069551;28;20243;-73
2020/12/31 02:05:17;;;;;;;12.80;10.23;;;3.50;99.90;;;;;;5067595;28;20204;-73
2020/12/31 02:07:46;;;;;;;11.13;10.07;;;3.60;99.90;;;;;;5068999;28;20207;-73
2020/12/31 02:10:15;;;;;;;12.30;10.43;;;3.60;99.90;;;;;;5069683;28;20525;-73
2020/12/31 02:12:42;;;;;;;11.73;10.40;;;3.60;99.90;;;;;;5068989;28;20452;-73
2020/12/31 02:15:13;;;;;;;12.37;11.10;;;3.60;99.90;;;;;;5072459;28;20958;-73
2020/12/31 02:17:38;;;;;;;13.97;11.50;;;3.60;99.90;;;;;;5057134;28;20433;-73
2020/12/31 02:20:04;;;;;;;12.93;10.30;;;3.60;99.90;;;;;;5051960;28;20982;-73
2020/12/31 02:22:30;;;;;;;11.63;10.20;;;3.60;99.90;;;;;;5067420;28;20384;-73
2020/12/31 02:24:56;;;;;;;11.30;10.20;;;3.60;99.90;;;;;;5071663;28;20219;-73
2020/12/31 02:27:21;;;;;;;13.90;11.73;;;3.60;99.90;;;;;;5074812;28;20931;-73
2020/12/31 02:29:47;;;;;;;14.17;11.40;;;3.70;99.90;;;;;;5052957;28;20187;-73
2020/12/31 02:32:12;;;;;;;12.47;10.00;;;3.70;99.90;;;;;;5051957;28;20195;-73
2020/12/31 02:34:38;;;;;;;14.43;12.03;;;3.70;99.90;;;;;;5070472;28;20245;-73
2020/12/31 02:37:03;;;;;;;10.80;9.80;;;3.70;99.90;;;;;;5068698;28;20640;-73
2020/12/31 02:39:29;;;;;;;11.57;10.37;;;3.70;99.90;;;;;;5071936;28;20677;-73
2020/12/31 02:41:54;;;;;;;12.13;9.97;;;3.80;99.90;;;;;;5050199;28;20190;-73
2020/12/31 02:44:20;;;;;;;11.53;10.33;;;3.70;99.90;;;;;;5068202;28;20659;-73
2020/12/31 02:46:45;;;;;;;11.90;10.20;;;3.70;99.90;;;;;;5069684;28;20182;-73
2020/12/31 02:49:11;;;;;;;13.47;10.30;;;3.70;99.90;;;;;;5071183;28;20198;-73
2020/12/31 02:51:36;;;;;;;10.70;9.60;;;3.70;99.90;;;;;;5053034;28;20188;-73
2020/12/31 02:54:03;;;;;;;10.13;9.13;;;3.70;99.90;;;;;;5068634;28;20184;-73
2020/12/31 02:56:29;;;;;;;12.00;9.80;;;3.70;99.90;;;;;;5069108;28;20188;-73
2020/12/31 02:58:54;;;;;;;10.13;9.10;;;3.70;99.90;;;;;;5070509;28;20441;-73
2020/12/31 03:01:21;;;;;;;11.20;10.00;;;3.80;99.90;;;;;;5069719;28;20282;-73
2020/12/31 03:03:47;;;;;;;10.20;9.20;;;3.70;99.90;;;;;;5072811;28;20644;-73
2020/12/31 03:06:12;;;;;;;10.03;9.00;;;3.70;99.90;;;;;;5072946;28;20482;-73
2020/12/31 03:08:39;;;;;;;13.20;10.00;;;3.70;99.90;;;;;;5057206;28;20432;-73
2020/12/31 03:11:25;;;;;;;12.70;9.70;;;3.60;99.90;;;;;;5074743;28;20545;-73
2020/12/31 03:13:51;;;;;;;10.07;8.80;;;3.60;99.90;;;;;;5071968;28;20442;-73
2020/12/31 03:16:18;;;;;;;12.20;10.90;;;3.60;99.90;;;;;;5072216;28;20444;-73
2020/12/31 03:18:44;;;;;;;10.77;9.63;;;3.60;99.90;;;;;;5068944;28;20425;-73
2020/12/31 03:21:09;;;;;;;11.37;8.93;;;3.50;99.90;;;;;;5070637;28;20458;-73
2020/12/31 03:23:35;;;;;;;12.27;9.60;;;3.50;99.90;;;;;;5071902;28;20433;-73
2020/12/31 03:26:01;;;;;;;10.50;9.40;;;3.50;99.90;;;;;;5053138;28;20286;-73
2020/12/31 03:28:26;;;;;;;13.03;11.13;;;3.40;99.90;;;;;;5073252;28;20824;-73
2020/12/31 03:30:52;;;;;;;11.80;10.03;;;3.40;99.90;;;;;;5065452;28;20513;-73
2020/12/31 03:33:18;;;;;;;11.10;9.93;;;3.40;99.90;;;;;;5071750;28;20218;-73
2020/12/31 03:35:46;;;;;;;11.93;9.70;;;3.40;99.90;;;;;;5074071;28;20192;-73
2020/12/31 03:38:13;;;;;;;11.23;10.03;;;3.40;99.90;;;;;;5071599;28;20464;-74
2020/12/31 03:40:39;;;;;;;12.13;10.30;;;3.40;99.90;;;;;;5058417;28;20551;-74
2020/12/31 03:43:05;;;;;;;11.00;9.90;;;3.30;99.90;;;;;;5071071;28;20442;-74
2020/12/31 03:45:31;;;;;;;11.87;10.30;;;3.30;99.90;;;;;;5054091;28;21044;-74
2020/12/31 03:47:57;;;;;;;13.73;10.70;;;3.30;99.90;;;;;;5071638;28;20441;-74
2020/12/31 03:50:22;;;;;;;11.50;10.30;;;3.30;99.90;;;;;;5071114;28;20195;-74
2020/12/31 03:52:48;;;;;;;12.73;9.57;;;3.30;99.90;;;;;;5071698;28;20226;-74
2020/12/31 03:55:15;;;;;;;13.37;11.30;;;3.40;99.90;;;;;;5071506;28;20179;-74
2020/12/31 03:57:41;;;;;;;12.53;10.83;;;3.30;99.90;;;;;;5056332;28;20442;-73
2020/12/31 04:00:06;;;;;;;11.87;9.93;;;3.30;99.90;;;;;;5058321;28;20722;-74
2020/12/31 04:02:32;;;;;;;10.50;9.43;;;3.30;99.90;;;;;;5072641;28;20196;-73
2020/12/31 04:04:59;;;;;;;12.50;9.50;;;3.30;99.90;;;;;;5070855;28;20238;-74
2020/12/31 04:07:24;;;;;;;11.50;10.30;;;3.30;99.90;;;;;;5076723;28;20217;-74
2020/12/31 04:09:50;;;;;;;9.97;9.00;;;3.30;99.90;;;;;;5072984;28;20481;-74
2020/12/31 04:12:15;;;;;;;10.77;9.67;;;3.30;99.90;;;;;;5070497;28;20203;-74
2020/12/31 04:14:41;;;;;;;10.90;9.80;;;3.20;99.90;;;;;;5068662;28;20252;-74
2020/12/31 04:17:06;;;;;;;10.57;9.57;;;3.30;99.90;;;;;;5054278;28;20198;-74
2020/12/31 04:19:32;;;;;;;11.00;9.40;;;3.30;99.90;;;;;;5075304;28;20198;-74
2020/12/31 04:21:57;;;;;;;10.00;8.80;;;3.30;99.90;;;;;;5070666;28;20331;-74
2020/12/31 04:24:23;;;;;;;10.30;9.30;;;3.30;99.90;;;;;;5051575;28;20249;-73
2020/12/31 04:26:50;;;;;;;12.60;9.23;;;3.30;99.90;;;;;;5074698;28;20195;-74
2020/12/31 04:29:16;;;;;;;9.80;8.13;;;3.20;99.90;;;;;;5074286;28;20266;-74
2020/12/31 04:31:41;;;;;;;9.47;8.57;;;3.20;99.90;;;;;;5070342;28;20524;-74
2020/12/31 04:34:07;;;;;;;10.10;9.07;;;3.20;99.90;;;;;;5056966;28;20425;-74
2020/12/31 04:36:32;;;;;;;10.03;9.13;;;3.20;99.90;;;;;;5069686;28;20187;-74
2020/12/31 04:38:58;;;;;;;8.63;7.83;;;3.20;99.90;;;;;;5082779;28;20300;-74
2020/12/31 04:41:23;;;;;;;9.93;9.03;;;3.20;99.90;;;;;;5071183;28;20714;-74
2020/12/31 04:43:49;;;;;;;9.70;8.80;;;3.10;99.90;;;;;;5053429;28;20289;-74
2020/12/31 04:46:21;;;;;;;9.90;8.90;;;3.10;99.90;;;;;;5053089;28;20184;-74
2020/12/31 04:48:55;;;;;;;9.20;7.77;;;3.10;99.90;;;;;;5064251;28;20957;-74
2020/12/31 04:51:25;;;;;;;9.93;8.90;;;3.00;99.90;;;;;;5069997;28;20494;-74
2020/12/31 04:53:52;;;;;;;12.53;8.57;;;3.00;99.90;;;;;;5056082;28;20430;-73
2020/12/31 04:56:18;;;;;;;8.83;7.93;;;3.00;99.90;;;;;;5069924;28;20468;-74
2020/12/31 04:58:44;;;;;;;10.67;9.57;;;3.00;99.90;;;;;;5053889;28;20512;-74
2020/12/31 05:01:10;;;;;;;9.43;8.43;;;3.00;99.90;;;;;;5070641;28;20516;-74
2020/12/31 05:03:35;;;;;;;9.10;8.20;;;3.00;99.90;;;;;;5069676;28;20195;-74
2020/12/31 05:06:03;;;;;;;9.47;8.43;;;3.00;99.90;;;;;;5071758;28;20509;-74
2020/12/31 05:08:30;;;;;;;11.13;9.23;;;3.00;99.90;;;;;;5053185;28;20610;-74
2020/12/31 05:10:57;;;;;;;10.37;8.80;;;3.00;99.90;;;;;;5070299;28;20437;-73
2020/12/31 05:13:23;;;;;;;10.37;8.43;;;3.00;99.90;;;;;;5072412;28;20441;-74
2020/12/31 05:15:49;;;;;;;9.00;8.10;;;3.00;99.90;;;;;;5052440;28;20452;-74
2020/12/31 05:18:22;;;;;;;11.07;8.20;;;3.00;99.90;;;;;;5077046;28;20436;-74
2020/12/31 05:20:55;;;;;;;9.37;8.40;;;3.00;99.90;;;;;;5078569;28;20210;-74
2020/12/31 05:23:28;;;;;;;10.13;8.90;;;3.00;99.90;;;;;;5081578;28;20539;-74
2020/12/31 05:25:55;;;;;;;10.00;9.00;;;3.10;99.90;;;;;;5053007;28;20990;-74
2020/12/31 05:28:29;;;;;;;10.80;7.87;;;3.00;99.90;;;;;;5072922;28;20445;-74
2020/12/31 05:30:59;;;;;;;8.70;7.77;;;3.00;99.90;;;;;;5070276;28;20434;-74
2020/12/31 05:33:25;;;;;;;9.23;8.33;;;3.00;99.90;;;;;;5052916;28;20494;-74
2020/12/31 05:35:52;;;;;;;8.90;7.67;;;3.00;99.90;;;;;;5069461;28;20927;-74
2020/12/31 05:38:21;;;;;;;9.47;8.47;;;3.10;99.90;;;;;;5057663;28;20444;-74
2020/12/31 05:40:59;;;;;;;9.30;8.30;;;3.10;99.90;;;;;;5070663;28;20450;-74
2020/12/31 05:43:25;;;;;;;9.90;8.90;;;3.10;99.90;;;;;;5070235;28;20453;-74
2020/12/31 05:46:03;;;;;;;8.10;7.30;;;3.10;99.90;;;;;;5076102;28;20476;-74
2020/12/31 05:48:29;;;;;;;9.90;7.70;;;3.00;99.90;;;;;;5070186;28;20425;-74
2020/12/31 05:50:55;;;;;;;9.53;8.57;;;3.10;99.90;;;;;;5071747;28;21012;-74
2020/12/31 05:53:24;;;;;;;8.50;7.60;;;3.00;99.90;;;;;;5071850;28;20202;-73
2020/12/31 05:55:54;;;;;;;9.17;8.23;;;3.00;99.90;;;;;;5052173;28;20283;-74
2020/12/31 05:58:23;;;;;;;9.47;8.57;;;3.10;99.90;;;;;;5069416;28;20532;-74
2020/12/31 06:01:11;;;;;;;7.83;7.13;;;3.10;99.90;;;;;;5050756;28;20445;-74
2020/12/31 06:03:42;;;;;;;7.50;6.80;;;3.10;99.90;;;;;;5068624;28;20484;-73
2020/12/31 06:06:15;;;;;;;8.70;7.80;;;3.00;99.90;;;;;;5069470;28;20717;-73
2020/12/31 06:08:55;;;;;;;9.13;8.23;;;3.00;99.90;;;;;;5074826;28;20447;-74
2020/12/31 06:11:30;;;;;;;9.03;7.53;;;3.10;99.90;;;;;;5071709;28;20981;-74
2020/12/31 06:13:57;;;;;;;10.30;8.33;;;3.10;99.90;;;;;;5070098;28;20483;-74
2020/12/31 06:16:28;;;;;;;9.07;7.57;;;3.10;99.90;;;;;;5073284;28;20472;-74
2020/12/31 06:19:01;;;;;;;9.87;8.00;;;3.10;99.90;;;;;;5051283;28;20524;-74
2020/12/31 06:21:57;;;;;;;9.20;8.30;;;3.10;99.90;;;;;;5068250;28;20440;-74
2020/12/31 06:24:30;;;;;;;7.70;7.00;;;3.10;99.90;;;;;;5071319;28;20941;-74
2020/12/31 06:27:06;;;;;;;9.53;8.53;;;3.10;99.90;;;;;;5067820;28;20803;-74
2020/12/31 06:29:44;;;;;;;7.87;6.50;;;3.10;99.90;;;;;;5069275;28;20921;-74
2020/12/31 06:32:36;;;;;;;9.00;7.33;;;3.10;99.90;;;;;;5072447;28;20487;-74
2020/12/31 06:35:03;;;;;;;8.47;7.00;;;3.10;99.90;;;;;;5069030;28;20441;-74
2020/12/31 06:37:29;;;;;;;8.13;7.10;;;3.10;99.90;;;;;;5053489;28;20440;-74
2020/12/31 06:40:21;;;;;;;9.13;7.80;;;3.10;99.90;;;;;;5086231;28;20977;-74
2020/12/31 06:43:06;;;;;;;7.03;6.23;;;3.10;99.90;;;;;;5073105;28;20836;-74
2020/12/31 06:45:32;;;;;;;7.93;7.13;;;3.10;99.90;;;;;;5076215;28;20504;-74
2020/12/31 06:47:57;;;;;;;6.90;6.23;;;3.10;99.90;;;;;;5071961;28;20477;-74
2020/12/31 06:50:56;;;;;;;7.93;7.20;;;3.10;99.90;;;;;;5072704;28;20433;-74
2020/12/31 06:53:35;;;;;;;6.67;5.97;;;3.10;99.90;;;;;;5056060;28;20594;-74
2020/12/31 06:56:03;;;;;;;6.20;5.40;;;3.10;99.90;;;;;;5074404;28;20793;-74
2020/12/31 06:58:29;;;;;;;6.03;5.43;;;3.10;99.90;;;;;;5073453;28;20540;-74
2020/12/31 07:00:55;;;;;;;6.70;6.10;;;3.10;99.90;;;;;;5071784;28;20516;-74
2020/12/31 07:03:39;;;;;;;6.53;5.80;;;3.10;99.90;;;;;;5071436;28;20270;-74
2020/12/31 07:06:25;;;;;;;7.17;6.47;;;3.10;99.90;;;;;;5072009;28;20437;-74
2020/12/31 07:08:56;;;;;;;5.97;5.43;;;3.10;99.90;;;;;;5055401;28;20437;-74
2020/12/31 07:11:39;;;;;;;6.37;5.80;;;3.10;99.90;;;;;;5075966;28;20463;-74
2020/12/31 07:14:24;;;;;;;7.10;6.40;;;3.10;99.90;;;;;;5053945;28;20897;-74
2020/12/31 07:17:01;;;;;;;5.53;5.03;;;3.10;99.90;;;;;;5072596;28;20856;-74
2020/12/31 07:19:43;;;;;;;6.23;5.70;;;3.20;99.90;;;;;;5075298;28;21027;-74
2020/12/31 07:22:18;;;;;;;6.13;5.63;;;3.20;99.90;;;;;;5073363;28;20431;-74
2020/12/31 07:24:59;;;;;;;7.50;6.17;;;3.20;99.90;;;;;;5053506;28;20465;-74
2020/12/31 07:27:30;;;;;;;6.93;6.33;;;3.20;99.90;;;;;;5061859;28;20459;-74
2020/12/31 07:30:01;;;;;;;5.77;5.20;;;3.20;99.90;;;;;;5070413;28;20527;-74
2020/12/31 07:32:51;;;;;;;5.40;4.90;;;3.10;99.90;;;;;;5072271;28;20514;-74
2020/12/31 07:35:39;;;;;;;6.37;5.87;;;3.20;99.90;;;;;;5072215;28;20441;-74
2020/12/31 07:38:08;;;;;;;4.37;3.97;;;3.20;99.90;;;;;;5085475;28;20485;-74
2020/12/31 07:40:41;;;;;;;6.37;5.77;;;3.20;99.90;;;;;;5054838;28;20500;-74
2020/12/31 07:43:29;;;;;;;6.63;6.00;;;3.20;99.90;;;;;;5072246;28;20478;-74
2020/12/31 07:46:00;;;;;;;5.77;5.27;;;3.20;99.90;;;;;;5071276;28;20477;-74
2020/12/31 07:48:27;;;;;;;5.43;5.03;;;3.20;99.90;;;;;;5059198;28;20463;-73
2020/12/31 07:50:57;;;;;;;5.60;5.10;;;3.20;99.90;;;;;;5072162;28;20863;-74
2020/12/31 07:53:23;;;;;;;8.23;5.30;;;3.10;99.90;;;;;;5071179;28;22526;-74
2020/12/31 07:55:50;;;;;;;5.30;4.80;;;3.10;99.90;;;;;;5070264;28;20851;-74
2020/12/31 07:58:17;;;;;;;6.00;5.43;;;3.10;99.90;;;;;;5072730;28;20715;-74
2020/12/31 08:00:43;;;;;;;6.07;5.47;;;3.10;99.90;;;;;;5072024;28;20430;-74
2020/12/31 08:03:10;;;;;;;6.07;5.53;;;3.00;99.90;;;;;;5053811;28;20456;-74
2020/12/31 08:05:36;;;;;;;6.20;5.60;;;3.00;99.90;;;;;;5073406;28;20945;-74
2020/12/31 08:08:01;;;;;;;6.20;5.70;;;3.10;99.90;;;;;;5081628;28;20551;-74
2020/12/31 08:10:30;;;;;;;6.07;5.57;;;3.00;99.90;;;;;;5070846;28;20437;-74
2020/12/31 08:13:04;;;;;;;7.00;6.40;;;3.00;99.90;;;;;;5070950;28;20195;-74
2020/12/31 08:15:31;;;;;;;6.87;6.27;;;3.10;99.90;;;;;;5054952;28;20962;-74
2020/12/31 08:17:58;;;;;;;6.20;5.60;;;3.10;99.90;;;;;;5071170;28;22526;-74
2020/12/31 08:20:26;;;;;;;7.57;6.90;;;3.10;99.90;;;;;;5072205;28;20538;-74
2020/12/31 08:22:57;;;;;;;7.33;6.67;;;3.10;99.90;;;;;;5070053;28;20446;-73
2020/12/31 08:25:32;;;;;;;8.00;7.20;;;3.10;99.90;;;;;;5072671;28;20481;-74
2020/12/31 08:28:04;;;;;;;7.80;7.00;;;3.10;99.90;;;;;;5076706;28;20445;-74
2020/12/31 08:30:35;;;;;;;8.57;7.77;;;3.10;99.90;;;;;;5070786;28;20448;-74
2020/12/31 08:33:02;;;;;;;8.00;7.20;;;3.10;99.90;;;;;;5052855;28;20457;-74
2020/12/31 08:35:30;;;;;;;7.77;7.07;;;3.20;99.90;;;;;;5071838;28;20516;-74
2020/12/31 08:38:05;;;;;;;7.73;6.90;;;3.20;99.90;;;;;;5078207;28;20794;-74
2020/12/31 08:40:32;;;;;;;7.87;7.10;;;3.20;99.90;;;;;;5053044;28;20527;-74
2020/12/31 08:42:58;;;;;;;8.27;7.47;;;3.30;99.90;;;;;;5070338;28;20449;-74
2020/12/31 08:45:28;;;;;;;8.63;7.83;;;3.20;99.90;;;;;;5053377;28;20472;-74
2020/12/31 08:48:08;;;;;;;8.73;7.93;;;3.30;99.90;;;;;;5073308;28;20460;-74
2020/12/31 08:50:34;;;;;;;10.30;7.57;;;3.30;99.90;;;;;;5072495;28;20959;-74
2020/12/31 08:53:03;;;;;;;8.93;8.07;;;3.30;99.90;;;;;;5052721;28;20521;-74
2020/12/31 08:55:29;;;;;;;9.27;8.30;;;3.30;99.90;;;;;;5054931;28;20236;-74
2020/12/31 08:58:14;;;;;;;9.60;7.60;;;3.40;99.90;;;;;;5073659;28;20834;-74
2020/12/31 09:00:40;;;;;;;9.53;8.53;;;3.40;99.90;;;;;;5070153;28;20191;-74
2020/12/31 09:03:06;;;;;;;9.60;8.60;;;3.40;99.90;;;;;;5072866;28;20837;-74
2020/12/31 09:05:32;;;;;;;8.73;7.83;;;3.40;99.90;;;;;;5070188;28;20523;-74
2020/12/31 09:08:02;;;;;;;9.00;8.10;;;3.40;99.90;;;;;;5072500;28;20631;-74
2020/12/31 09:10:32;;;;;;;8.60;7.80;;;3.50;99.90;;;;;;5068574;28;20184;-74
2020/12/31 09:12:58;;;;;;;8.70;7.90;;;3.50;99.90;;;;;;5070554;28;20429;-74
2020/12/31 09:15:24;;;;;;;9.70;7.87;;;3.60;99.90;;;;;;5069503;28;20827;-74
2020/12/31 09:17:52;;;;;;;9.17;8.27;;;3.60;99.90;;;;;;5060987;28;20444;-74
2020/12/31 09:20:20;;;;;;;8.90;8.00;;;3.60;99.90;;;;;;5073203;28;20473;-74
2020/12/31 09:22:46;;;;;;;8.80;8.00;;;3.60;99.90;;;;;;5073001;28;20499;-74
2020/12/31 09:25:12;;;;;;;8.60;7.80;;;3.60;99.90;;;;;;5069525;28;20473;-74
2020/12/31 09:27:39;;;;;;;8.07;7.27;;;3.70;99.90;;;;;;5068348;28;20188;-74
2020/12/31 09:30:06;;;;;;;8.20;7.40;;;3.70;99.90;;;;;;5054283;28;20495;-74
2020/12/31 09:32:32;;;;;;;7.40;6.70;;;3.70;99.90;;;;;;5071849;28;20488;-74
2020/12/31 09:34:59;;;;;;;10.93;7.40;;;3.70;99.90;;;;;;5051515;28;20991;-74
2020/12/31 09:37:24;;;;;;;8.67;7.57;;;3.80;99.90;;;;;;5069069;28;20469;-74
2020/12/31 09:39:50;;;;;;;7.50;6.60;;;3.80;99.90;;;;;;5072568;28;20487;-74
2020/12/31 09:42:16;;;;;;;9.30;7.73;;;3.90;99.90;;;;;;5068727;28;20856;-74
2020/12/31 09:44:42;;;;;;;8.33;7.43;;;3.90;99.90;;;;;;5069792;28;20203;-74
2020/12/31 09:47:07;;;;;;;8.00;7.10;;;4.00;99.90;;;;;;5069694;28;20452;-74
2020/12/31 09:49:33;;;;;;;8.10;6.30;;;4.00;99.90;;;;;;5075460;28;20194;-74
2020/12/31 09:52:00;;;;;;;9.17;8.20;;;4.00;99.90;;;;;;5071053;28;20195;-74
2020/12/31 09:54:26;;;;;;;8.80;7.90;;;4.00;99.90;;;;;;5068948;28;20226;-74
2020/12/31 09:56:51;;;;;;;8.37;7.57;;;4.00;99.90;;;;;;5068943;28;20470;-74
2020/12/31 09:59:17;;;;;;;7.87;7.07;;;4.00;99.90;;;;;;5069588;28;20956;-74
2020/12/31 10:01:44;;;;;;;6.80;6.20;;;4.10;99.90;;;;;;5071014;28;20199;-74
2020/12/31 10:04:10;;;;;;;11.33;10.13;;;4.10;99.90;;;;;;5068762;28;20369;-74
2020/12/31 10:06:35;;;;;;;8.73;7.70;;;4.10;99.90;;;;;;5051295;28;20448;-74
2020/12/31 10:09:01;;;;;;;9.90;8.90;;;4.10;99.90;;;;;;5067619;28;20217;-74
2020/12/31 10:11:28;;;;;;;9.90;9.03;;;4.20;99.90;;;;;;5067309;28;20499;-74
2020/12/31 10:13:54;;;;;;;11.07;9.57;;;4.20;99.90;;;;;;5069270;28;20184;-74
2020/12/31 10:16:20;;;;;;;7.73;6.93;;;4.30;99.90;;;;;;5069047;28;20957;-74
2020/12/31 10:18:45;;;;;;;7.77;7.07;;;4.30;99.90;;;;;;5071620;28;20199;-74
2020/12/31 10:21:15;;;;;;;8.70;7.80;;;4.30;99.90;;;;;;5069812;28;20256;-74
2020/12/31 10:23:41;;;;;;;8.17;7.37;;;4.40;99.90;;;;;;5051835;28;20195;-74
2020/12/31 10:26:06;;;;;;;9.60;8.70;;;4.40;99.90;;;;;;5066188;28;21584;-74
2020/12/31 10:28:32;;;;;;;6.57;5.97;;;4.40;99.90;;;;;;5052027;28;20278;-74
2020/12/31 10:30:59;;;;;;;6.90;6.23;;;4.40;99.90;;;;;;5070233;28;20602;-74
2020/12/31 10:33:24;;;;;;;6.33;5.83;;;4.40;99.90;;;;;;5055786;28;20530;-74
2020/12/31 10:35:50;;;;;;;8.33;5.90;;;4.40;99.90;;;;;;5068049;28;20714;-74
2020/12/31 10:38:15;;;;;;;6.20;5.70;;;4.40;99.90;;;;;;5073740;28;20225;-74
2020/12/31 10:40:41;;;;;;;6.47;5.87;;;4.40;99.90;;;;;;5050802;28;20259;-74
2020/12/31 10:43:06;;;;;;;6.17;5.60;;;4.30;99.90;;;;;;5069136;28;20227;-74
2020/12/31 10:45:32;;;;;;;7.57;6.87;;;4.30;99.90;;;;;;5055394;28;20433;-73
2020/12/31 10:47:57;;;;;;;6.90;6.20;;;4.30;99.90;;;;;;5054469;28;20202;-74
2020/12/31 10:50:23;;;;;;;6.43;5.83;;;4.40;99.90;;;;;;5072971;28;20202;-74
2020/12/31 10:52:48;;;;;;;7.03;6.37;;;4.30;99.90;;;;;;5073072;28;20680;-74
2020/12/31 10:55:14;;;;;;;7.43;5.83;;;4.30;99.90;;;;;;5052097;28;20245;-74
2020/12/31 10:57:39;;;;;;;6.53;5.63;;;4.40;99.90;;;;;;5070298;28;20245;-74
2020/12/31 11:00:05;;;;;;;5.63;5.13;;;4.40;99.90;;;;;;5069858;28;20190;-74
2020/12/31 11:02:30;;;;;;;5.53;5.03;;;4.40;99.90;;;;;;5069256;28;20202;-74
2020/12/31 11:04:56;;;;;;;6.47;5.90;;;4.40;99.90;;;;;;5067698;28;20294;-74
2020/12/31 11:07:21;;;;;;;6.83;6.23;;;4.40;99.90;;;;;;5068436;28;20203;-74
2020/12/31 11:09:47;;;;;;;6.50;5.90;;;4.30;99.90;;;;;;5069500;28;20274;-74
2020/12/31 11:12:12;;;;;;;6.07;5.50;;;4.30;99.90;;;;;;5069128;28;20210;-74
2020/12/31 11:14:38;;;;;;;5.93;5.43;;;4.30;99.90;;;;;;5068388;28;20207;-74
2020/12/31 11:17:03;;;;;;;5.53;5.03;;;4.40;99.90;;;;;;5073524;28;20206;-74
2020/12/31 11:19:29;;;;;;;5.20;4.70;;;4.40;99.90;;;;;;5052278;28;20211;-74
2020/12/31 11:21:55;;;;;;;5.30;4.80;;;4.30;99.90;;;;;;5070120;28;20196;-74
2020/12/31 11:24:20;;;;;;;5.30;4.80;;;4.30;99.90;;;;;;5071714;28;20208;-74
2020/12/31 11:26:46;;;;;;;4.57;4.23;;;4.30;99.90;;;;;;5077061;28;20183;-74
2020/12/31 11:29:12;;;;;;;7.27;4.60;;;4.40;99.90;;;;;;5075836;28;20195;-74
2020/12/31 11:31:37;;;;;;;5.47;4.97;;;4.30;99.90;;;;;;5054314;28;20183;-74
2020/12/31 11:34:03;;;;;;;4.73;4.33;;;4.30;99.90;;;;;;5071312;28;20448;-74
2020/12/31 11:36:29;;;;;;;6.30;5.70;;;4.20;99.90;;;;;;5071971;28;20183;-74
2020/12/31 11:38:55;;;;;;;5.90;5.30;;;4.30;99.90;;;;;;5061730;28;20194;-76
2020/12/31 11:41:21;;;;;;;4.50;3.70;;;4.30;99.90;;;;;;5071723;28;20441;-74
2020/12/31 11:43:47;;;;;;;4.90;4.40;;;4.30;99.90;;;;;;5072079;28;20790;-74
2020/12/31 11:46:13;;;;;;;4.47;4.07;;;4.40;99.90;;;;;;5071806;28;20480;-74
2020/12/31 11:48:39;;;;;;;4.67;4.17;;;4.50;99.90;;;;;;5054126;28;20210;-74
2020/12/31 11:51:08;;;;;;;4.10;3.70;;;4.60;99.90;;;;;;5071966;28;20429;-74
2020/12/31 11:53:34;;;;;;;5.73;5.20;;;4.60;99.90;;;;;;5072059;28;20523;-74
2020/12/31 11:56:01;;;;;;;4.77;4.37;;;4.60;99.90;;;;;;5073267;28;20856;-74
2020/12/31 11:58:27;;;;;;;5.37;4.50;;;4.50;99.90;;;;;;5079757;28;20463;-74
2020/12/31 12:00:53;;;;;;;3.30;3.00;;;4.60;99.90;;;;;;5053643;28;20444;-74
2020/12/31 12:03:18;;;;;;;4.03;3.60;;;4.60;99.90;;;;;;5070822;28;20437;-74
2020/12/31 12:05:44;;;;;;;5.13;4.63;;;4.60;99.90;;;;;;5056593;28;20216;-74
2020/12/31 12:08:09;;;;;;;4.43;4.03;;;4.50;99.90;;;;;;5074037;28;20183;-74
2020/12/31 12:10:35;;;;;;;4.67;4.27;;;4.50;99.90;;;;;;5073276;28;20281;-74
2020/12/31 12:13:01;;;;;;;5.90;3.87;;;4.50;99.90;;;;;;5072324;28;20207;-74
2020/12/31 12:15:26;;;;;;;3.93;3.60;;;4.60;99.90;;;;;;5072188;28;20187;-74
2020/12/31 12:17:52;;;;;;;4.30;3.90;;;4.60;99.90;;;;;;5057306;28;20182;-74
2020/12/31 12:20:18;;;;;;;3.50;3.20;;;4.70;99.90;;;;;;5053090;28;20204;-74
2020/12/31 12:22:44;;;;;;;4.60;4.20;;;4.70;99.90;;;;;;5070836;28;20179;-74
2020/12/31 12:25:11;;;;;;;4.30;3.90;;;4.70;99.90;;;;;;5055061;28;20521;-74
2020/12/31 12:27:37;;;;;;;4.27;3.87;;;4.70;99.90;;;;;;5077277;28;20441;-74
2020/12/31 12:30:10;;;;;;;4.50;4.10;;;4.50;99.90;;;;;;5071539;28;20918;-74
2020/12/31 12:32:40;;;;;;;3.87;3.57;;;4.50;99.90;;;;;;5069703;28;20657;-74
2020/12/31 12:35:07;;;;;;;3.70;3.40;;;4.50;99.90;;;;;;5071929;28;20433;-74
2020/12/31 12:37:33;;;;;;;4.47;4.07;;;4.50;99.90;;;;;;5072818;28;20993;-74
2020/12/31 12:39:58;;;;;;;4.30;4.00;;;4.60;99.90;;;;;;5076078;28;20437;-74
2020/12/31 12:42:24;;;;;;;4.50;3.73;;;4.60;99.90;;;;;;5070033;28;20191;-74
2020/12/31 12:44:50;;;;;;;4.83;4.00;;;4.50;99.90;;;;;;5070532;28;20208;-74
2020/12/31 12:47:15;;;;;;;4.47;4.07;;;4.50;99.90;;;;;;5078953;28;20672;-74
2020/12/31 12:49:43;;;;;;;4.60;4.20;;;4.40;99.90;;;;;;5071623;28;20687;-74
2020/12/31 12:52:09;;;;;;;4.33;3.93;;;4.50;99.90;;;;;;5072662;28;20241;-74
2020/12/31 12:54:34;;;;;;;4.23;3.93;;;4.50;99.90;;;;;;5054520;28;20433;-74
2020/12/31 12:57:00;;;;;;;6.40;3.90;;;4.60;99.90;;;;;;5053067;28;20702;-74